Time;durP1;ratioP1;P1;durP2;ratioP2;P2;SDS_P1;SDS_P2;PMS_P1;PMS_P2;Temp;Humidity;BMP_temperature;BMP_pressure;BME280_temperature;BME280_humidity;BME280_pressure;Samples;Min_cycle;Max_cycle;Signal;HPM_P1;HPM_P2
2022/03/01 00:01:15;;;;;;;21.13;13.53;;;0.90;69.20;;;;;;5069024;28;20049;-74
2022/03/01 00:03:40;;;;;;;20.80;12.87;;;0.90;69.10;;;;;;5051342;28;20087;-74
2022/03/01 00:06:06;;;;;;;21.20;13.57;;;0.80;69.20;;;;;;5049737;28;20070;-74
2022/03/01 00:08:32;;;;;;;25.90;13.40;;;0.80;69.20;;;;;;5066344;28;20047;-74
2022/03/01 00:10:58;;;;;;;24.90;14.83;;;0.80;69.20;;;;;;5065588;28;20041;-74
2022/03/01 00:13:23;;;;;;;21.50;13.47;;;0.80;69.30;;;;;;5061101;28;20044;-74
2022/03/01 00:15:49;;;;;;;19.67;12.70;;;0.80;69.10;;;;;;5074072;28;20072;-74
2022/03/01 00:18:14;;;;;;;20.87;13.07;;;0.80;69.20;;;;;;5086001;28;21132;-74
2022/03/01 00:20:47;;;;;;;21.50;13.70;;;0.80;69.20;;;;;;5051612;28;20054;-74
2022/03/01 00:23:13;;;;;;;21.50;13.90;;;0.70;69.40;;;;;;5098491;28;20040;-74
2022/03/01 00:25:38;;;;;;;22.87;13.60;;;0.70;69.20;;;;;;5026483;28;20052;-74
2022/03/01 00:28:04;;;;;;;23.73;13.50;;;0.70;69.40;;;;;;5065514;28;20045;-74
2022/03/01 00:30:30;;;;;;;22.63;13.90;;;0.70;69.40;;;;;;5055326;28;20665;-74
2022/03/01 00:32:56;;;;;;;20.23;13.43;;;0.70;69.40;;;;;;5062510;28;20119;-74
2022/03/01 00:35:21;;;;;;;19.60;12.77;;;0.70;69.40;;;;;;5060086;28;20028;-74
2022/03/01 00:37:47;;;;;;;20.40;13.03;;;0.80;69.30;;;;;;5069737;28;20028;-74
2022/03/01 00:40:13;;;;;;;21.73;13.20;;;0.80;69.20;;;;;;5068592;28;20044;-74
2022/03/01 00:42:38;;;;;;;22.30;13.27;;;0.80;69.50;;;;;;5055159;28;20043;-74
2022/03/01 00:45:05;;;;;;;21.20;13.73;;;0.80;69.40;;;;;;5070623;28;20059;-73
2022/03/01 00:47:30;;;;;;;20.80;13.35;;;0.80;69.30;;;;;;5050555;28;20066;-74
2022/03/01 00:49:57;;;;;;;21.37;13.90;;;0.80;69.50;;;;;;5062647;28;20048;-74
2022/03/01 00:52:24;;;;;;;22.58;13.27;;;0.70;69.50;;;;;;5068460;28;20048;-74
2022/03/01 00:54:49;;;;;;;21.77;13.20;;;0.70;69.50;;;;;;5089240;28;20107;-74
2022/03/01 00:57:15;;;;;;;21.80;13.77;;;0.80;69.60;;;;;;5104198;28;20114;-74
2022/03/01 00:59:41;;;;;;;26.23;14.03;;;0.80;69.50;;;;;;5061498;28;20044;-74
2022/03/01 01:02:06;;;;;;;23.13;13.53;;;0.70;69.60;;;;;;5084056;28;20047;-74
2022/03/01 01:04:32;;;;;;;24.70;13.87;;;0.70;69.60;;;;;;5052466;28;20083;-74
2022/03/01 01:06:58;;;;;;;20.33;13.33;;;0.70;69.50;;;;;;5068149;28;20044;-74
2022/03/01 01:09:23;;;;;;;22.80;13.97;;;0.70;69.50;;;;;;5073539;28;20055;-74
2022/03/01 01:11:49;;;;;;;21.57;13.37;;;0.70;69.50;;;;;;5036468;28;20070;-74
2022/03/01 01:14:15;;;;;;;20.03;13.13;;;0.60;69.60;;;;;;5072525;28;20560;-74
2022/03/01 01:16:41;;;;;;;22.43;13.70;;;0.60;69.50;;;;;;5068430;28;20036;-74
2022/03/01 01:19:07;;;;;;;21.45;14.02;;;0.60;69.70;;;;;;5086761;28;20109;-74
2022/03/01 01:24:17;;;;;;;21.38;14.18;;;0.60;69.70;;;;;;5085161;28;20105;-74
2022/03/01 01:26:42;;;;;;;22.63;13.93;;;0.60;69.80;;;;;;5057286;28;20685;-74
2022/03/01 01:29:08;;;;;;;22.87;13.87;;;0.60;69.70;;;;;;5056306;28;20040;-74
2022/03/01 01:31:34;;;;;;;23.70;14.93;;;0.60;69.80;;;;;;5057640;28;20123;-74
2022/03/01 01:33:59;;;;;;;23.40;12.80;;;0.60;69.90;;;;;;5052048;28;20237;-74
2022/03/01 01:36:26;;;;;;;21.70;13.73;;;0.60;69.90;;;;;;5048622;28;20044;-74
2022/03/01 01:38:55;;;;;;;22.88;14.73;;;0.60;70.10;;;;;;5063411;28;20044;-74
2022/03/01 01:41:21;;;;;;;20.17;13.30;;;0.60;70.10;;;;;;5067421;28;20100;-74
2022/03/01 01:43:47;;;;;;;22.63;14.23;;;0.70;70.20;;;;;;5085226;28;20048;-74
2022/03/01 01:46:12;;;;;;;20.65;13.23;;;0.70;70.10;;;;;;5073678;28;20442;-74
2022/03/01 01:48:38;;;;;;;21.43;13.90;;;0.70;70.20;;;;;;5054051;28;20055;-74
2022/03/01 01:51:04;;;;;;;22.37;13.17;;;0.80;70.20;;;;;;5045612;28;20052;-74
2022/03/01 01:53:29;;;;;;;23.17;14.50;;;0.80;70.20;;;;;;5049964;28;20866;-74
2022/03/01 01:55:55;;;;;;;21.33;14.17;;;0.90;70.10;;;;;;5055555;28;20083;-73
2022/03/01 01:58:21;;;;;;;22.07;14.53;;;0.90;70.00;;;;;;5072372;28;20041;-74
2022/03/01 02:00:47;;;;;;;19.93;13.47;;;0.90;69.90;;;;;;5049686;28;20097;-74
2022/03/01 02:03:12;;;;;;;22.20;14.10;;;0.90;69.90;;;;;;5086023;28;20132;-74
2022/03/01 02:05:38;;;;;;;25.60;14.70;;;0.90;69.90;;;;;;5041551;28;20044;-74
2022/03/01 02:08:04;;;;;;;24.87;14.20;;;0.90;70.00;;;;;;5062319;28;20045;-74
2022/03/01 02:10:30;;;;;;;23.53;14.37;;;1.00;70.10;;;;;;5053079;28;20580;-74
2022/03/01 02:12:56;;;;;;;23.40;13.63;;;1.00;69.90;;;;;;5060803;28;20040;-74
2022/03/01 02:15:23;;;;;;;22.40;13.98;;;1.00;69.80;;;;;;5084058;28;20118;-74
2022/03/01 02:17:49;;;;;;;21.88;13.68;;;1.00;69.80;;;;;;5045746;28;20078;-74
2022/03/01 02:20:17;;;;;;;24.40;13.60;;;1.00;69.90;;;;;;5081797;28;20413;-73
2022/03/01 02:22:44;;;;;;;24.17;13.98;;;1.00;70.00;;;;;;5082277;28;20077;-74
2022/03/01 02:25:09;;;;;;;24.00;14.55;;;1.00;69.90;;;;;;5053409;28;20499;-74
2022/03/01 02:27:36;;;;;;;25.40;14.47;;;1.00;70.00;;;;;;5069618;28;20127;-73
2022/03/01 02:30:04;;;;;;;22.85;13.57;;;1.00;69.90;;;;;;5082648;28;20412;-74
2022/03/01 02:32:29;;;;;;;24.80;14.57;;;1.00;70.10;;;;;;5068044;28;20115;-74
2022/03/01 02:34:55;;;;;;;26.03;15.17;;;1.00;69.90;;;;;;5045388;28;20169;-74
2022/03/01 02:37:21;;;;;;;21.67;14.03;;;1.00;69.90;;;;;;5092753;28;20036;-73
2022/03/01 02:39:47;;;;;;;21.67;13.83;;;1.10;69.90;;;;;;5068493;28;20081;-74
2022/03/01 02:42:12;;;;;;;21.63;13.13;;;1.10;69.80;;;;;;5065054;28;20416;-74
2022/03/01 02:44:38;;;;;;;21.07;14.33;;;1.20;69.70;;;;;;5064610;28;20066;-74
2022/03/01 02:47:04;;;;;;;24.90;14.17;;;1.20;69.70;;;;;;5064696;28;20067;-74
2022/03/01 02:49:30;;;;;;;23.05;13.45;;;1.20;69.60;;;;;;5073329;28;20057;-74
2022/03/01 02:51:55;;;;;;;21.67;13.37;;;1.20;69.60;;;;;;5054287;28;20052;-74
2022/03/01 02:54:21;;;;;;;22.07;13.40;;;1.20;69.50;;;;;;5077497;28;20086;-73
2022/03/01 02:56:47;;;;;;;24.77;13.50;;;1.20;69.60;;;;;;5048532;28;20040;-74
2022/03/01 02:59:12;;;;;;;20.90;13.40;;;1.20;69.50;;;;;;5068325;28;20784;-74
2022/03/01 03:01:38;;;;;;;21.43;13.40;;;1.20;69.40;;;;;;5064306;28;20032;-74
2022/03/01 03:04:05;;;;;;;21.83;13.33;;;1.20;69.40;;;;;;5056020;28;20412;-74
2022/03/01 03:06:30;;;;;;;21.13;13.70;;;1.20;69.30;;;;;;5080144;28;20101;-74
2022/03/01 03:08:56;;;;;;;22.93;13.57;;;1.20;69.30;;;;;;5069718;28;20439;-74
2022/03/01 03:11:22;;;;;;;22.83;12.70;;;1.20;69.30;;;;;;5048764;28;20036;-74
2022/03/01 03:13:48;;;;;;;21.40;13.32;;;1.20;69.40;;;;;;5035776;28;20040;-74
2022/03/01 03:16:16;;;;;;;23.10;13.25;;;1.20;69.40;;;;;;5064845;28;20032;-74
2022/03/01 03:18:42;;;;;;;19.00;12.52;;;1.20;69.30;;;;;;5054378;28;20036;-74
2022/03/01 03:21:08;;;;;;;21.03;13.20;;;1.20;69.30;;;;;;5086489;28;20113;-74
2022/03/01 03:23:34;;;;;;;20.93;13.20;;;1.20;69.30;;;;;;5066046;28;20040;-74
2022/03/01 03:26:00;;;;;;;20.67;12.70;;;1.20;69.20;;;;;;5069681;28;20040;-74
2022/03/01 03:28:26;;;;;;;21.70;13.80;;;1.20;69.40;;;;;;5071810;28;20538;-74
2022/03/01 03:30:52;;;;;;;23.33;13.40;;;1.20;69.30;;;;;;5086124;28;20071;-74
2022/03/01 03:33:18;;;;;;;24.20;13.95;;;1.20;69.40;;;;;;5056811;28;20558;-73
2022/03/01 03:35:44;;;;;;;20.57;13.13;;;1.20;69.10;;;;;;5063324;28;20043;-74
2022/03/01 03:38:10;;;;;;;23.33;14.00;;;1.20;69.30;;;;;;5051034;28;20064;-73
2022/03/01 03:40:35;;;;;;;26.60;13.83;;;1.20;69.30;;;;;;5055816;28;20044;-74
2022/03/01 03:43:01;;;;;;;21.87;13.70;;;1.30;69.20;;;;;;5060775;28;20850;-74
2022/03/01 03:45:27;;;;;;;23.30;13.87;;;1.30;69.20;;;;;;5064396;28;20093;-74
2022/03/01 03:47:52;;;;;;;22.13;13.97;;;1.30;69.30;;;;;;5045175;28;20665;-74
2022/03/01 03:50:18;;;;;;;21.97;13.73;;;1.30;68.90;;;;;;5060012;28;20040;-74
2022/03/01 03:52:44;;;;;;;21.27;13.80;;;1.30;69.00;;;;;;5064377;28;20035;-74
2022/03/01 03:55:11;;;;;;;22.63;13.70;;;1.30;68.80;;;;;;5085038;28;20034;-73
2022/03/01 03:57:37;;;;;;;22.35;13.50;;;1.30;69.00;;;;;;5083819;28;20063;-74
2022/03/01 04:00:08;;;;;;;24.33;14.63;;;1.30;68.90;;;;;;5068729;28;20072;-73
2022/03/01 04:02:34;;;;;;;22.35;14.30;;;1.40;68.90;;;;;;5067601;28;20143;-74
2022/03/01 04:05:00;;;;;;;21.87;12.93;;;1.40;68.90;;;;;;5070604;28;20131;-74
2022/03/01 04:07:26;;;;;;;22.77;14.27;;;1.40;68.90;;;;;;5065743;28;20459;-74
2022/03/01 04:09:52;;;;;;;23.53;14.00;;;1.40;68.70;;;;;;5035704;28;20416;-74
2022/03/01 04:12:18;;;;;;;23.93;13.90;;;1.40;68.80;;;;;;5065863;28;20040;-74
2022/03/01 04:14:44;;;;;;;24.58;13.90;;;1.40;68.80;;;;;;5065650;28;20089;-74
2022/03/01 04:17:10;;;;;;;21.00;13.07;;;1.40;68.80;;;;;;5064722;28;20555;-74
2022/03/01 04:19:36;;;;;;;21.98;13.45;;;1.40;68.90;;;;;;5067817;28;20718;-74
2022/03/01 04:22:02;;;;;;;22.35;14.00;;;1.50;69.00;;;;;;5062447;28;20059;-74
2022/03/01 04:24:28;;;;;;;22.40;13.85;;;1.50;68.80;;;;;;5056263;28;20083;-74
2022/03/01 04:26:54;;;;;;;21.17;13.20;;;1.50;68.90;;;;;;5081309;28;20052;-74
2022/03/01 04:29:20;;;;;;;21.83;13.70;;;1.50;69.00;;;;;;5034333;28;20056;-74
2022/03/01 04:31:45;;;;;;;20.00;13.77;;;1.50;69.00;;;;;;5086258;28;20040;-73
2022/03/01 04:34:11;;;;;;;23.90;14.63;;;1.50;69.10;;;;;;5055054;28;20039;-74
2022/03/01 04:36:38;;;;;;;23.30;13.70;;;1.50;68.90;;;;;;5053719;28;20044;-74
2022/03/01 04:39:04;;;;;;;20.77;12.90;;;1.50;68.80;;;;;;5054927;28;20135;-74
2022/03/01 04:41:30;;;;;;;20.20;13.53;;;1.50;69.00;;;;;;5100250;28;20075;-74
2022/03/01 04:43:55;;;;;;;24.30;14.60;;;1.50;69.00;;;;;;5067721;28;20097;-74
2022/03/01 04:46:21;;;;;;;23.97;13.73;;;1.50;69.00;;;;;;5046645;28;20132;-74
2022/03/01 04:48:46;;;;;;;21.57;12.80;;;1.50;69.10;;;;;;5067284;28;20051;-74
2022/03/01 04:51:13;;;;;;;20.77;13.63;;;1.50;69.00;;;;;;5060843;28;20040;-75
2022/03/01 04:53:38;;;;;;;24.33;13.85;;;1.50;69.00;;;;;;5051259;28;20122;-74
2022/03/01 04:56:04;;;;;;;21.50;13.00;;;1.50;68.90;;;;;;5081579;28;20115;-74
2022/03/01 04:58:30;;;;;;;18.35;13.27;;;1.50;68.80;;;;;;5085545;28;20462;-74
2022/03/01 05:00:56;;;;;;;22.40;14.57;;;1.50;69.00;;;;;;5088052;28;20047;-74
2022/03/01 05:03:23;;;;;;;21.57;13.97;;;1.50;68.80;;;;;;5056945;28;20416;-74
2022/03/01 05:05:49;;;;;;;22.33;13.85;;;1.50;68.90;;;;;;5091491;28;20051;-74
2022/03/01 05:08:15;;;;;;;23.35;14.02;;;1.50;68.80;;;;;;5079458;28;20043;-74
2022/03/01 05:10:41;;;;;;;24.13;14.17;;;1.50;68.70;;;;;;5061031;28;20043;-74
2022/03/01 05:13:06;;;;;;;22.33;13.60;;;1.50;68.70;;;;;;5086005;28;20040;-74
2022/03/01 05:15:32;;;;;;;20.00;14.17;;;1.50;68.60;;;;;;5086061;28;20596;-74
2022/03/01 05:17:59;;;;;;;21.10;14.27;;;1.60;68.60;;;;;;5086611;28;20102;-74
2022/03/01 05:20:26;;;;;;;22.98;13.68;;;1.60;68.60;;;;;;5076355;28;20053;-74
2022/03/01 05:22:53;;;;;;;22.83;13.73;;;1.60;68.70;;;;;;5070341;28;20082;-74
2022/03/01 05:25:20;;;;;;;22.75;14.00;;;1.60;68.50;;;;;;5059508;28;20040;-74
2022/03/01 05:27:49;;;;;;;21.33;13.70;;;1.70;68.50;;;;;;5072499;28;20492;-73
2022/03/01 05:30:17;;;;;;;21.38;13.57;;;1.70;68.40;;;;;;5066337;28;20843;-74
2022/03/01 05:32:46;;;;;;;21.67;13.60;;;1.70;68.50;;;;;;5065417;28;20455;-74
2022/03/01 05:35:14;;;;;;;21.25;13.93;;;1.70;68.60;;;;;;5095707;28;20036;-74
2022/03/01 05:37:42;;;;;;;22.33;13.70;;;1.70;68.60;;;;;;5063047;28;20043;-74
2022/03/01 05:40:09;;;;;;;20.85;13.55;;;1.70;68.70;;;;;;5067645;28;20046;-74
2022/03/01 05:42:35;;;;;;;24.60;13.95;;;1.70;68.60;;;;;;5067732;28;20444;-74
2022/03/01 05:45:01;;;;;;;21.92;12.63;;;1.70;68.80;;;;;;5084472;28;20043;-74
2022/03/01 05:47:27;;;;;;;22.60;14.03;;;1.70;68.80;;;;;;5059484;28;20040;-74
2022/03/01 05:49:56;;;;;;;22.75;14.00;;;1.70;68.90;;;;;;5044596;28;20076;-74
2022/03/01 05:52:22;;;;;;;23.95;13.85;;;1.70;68.90;;;;;;5062787;28;20047;-74
2022/03/01 05:54:48;;;;;;;21.38;14.02;;;1.70;68.90;;;;;;5071763;28;20082;-74
2022/03/01 05:57:14;;;;;;;20.90;13.82;;;1.80;68.70;;;;;;5069335;28;20032;-74
2022/03/01 05:59:40;;;;;;;21.20;14.33;;;1.80;68.80;;;;;;5053163;28;20052;-74
2022/03/01 06:02:06;;;;;;;20.53;13.23;;;1.80;68.80;;;;;;5049512;28;20082;-74
2022/03/01 06:04:32;;;;;;;23.02;15.02;;;1.80;68.80;;;;;;5080640;28;20080;-74
2022/03/01 06:06:58;;;;;;;20.98;13.30;;;1.80;68.80;;;;;;5047245;28;20036;-74
2022/03/01 06:09:24;;;;;;;21.80;13.00;;;1.80;68.80;;;;;;5068914;28;20085;-74
2022/03/01 06:11:49;;;;;;;21.47;13.53;;;1.80;68.90;;;;;;5068859;28;20126;-74
2022/03/01 06:14:16;;;;;;;21.57;13.77;;;1.80;69.00;;;;;;5098844;28;20492;-74
2022/03/01 06:16:43;;;;;;;25.15;14.77;;;1.80;69.00;;;;;;5060744;28;20047;-74
2022/03/01 06:19:09;;;;;;;23.60;14.32;;;1.80;68.90;;;;;;5067314;28;20728;-74
2022/03/01 06:21:35;;;;;;;21.90;13.93;;;1.90;68.90;;;;;;5056557;28;20044;-74
2022/03/01 06:24:02;;;;;;;20.67;13.40;;;1.90;68.60;;;;;;5047332;28;20081;-74
2022/03/01 06:26:28;;;;;;;22.08;13.32;;;2.00;68.50;;;;;;5080927;28;20355;-74
2022/03/01 06:28:53;;;;;;;20.67;13.50;;;2.10;68.60;;;;;;5068981;28;20037;-74
2022/03/01 06:31:19;;;;;;;21.17;13.90;;;2.10;68.50;;;;;;5033450;28;20050;-74
2022/03/01 06:33:45;;;;;;;20.03;13.23;;;2.10;68.70;;;;;;5068326;28;20492;-74
2022/03/01 06:36:11;;;;;;;21.57;14.10;;;2.20;68.30;;;;;;5068425;28;20071;-75
2022/03/01 06:38:36;;;;;;;24.40;14.20;;;2.20;68.40;;;;;;5067899;28;20036;-74
2022/03/01 06:41:02;;;;;;;23.73;13.37;;;2.20;68.50;;;;;;5063179;28;20595;-75
2022/03/01 06:43:28;;;;;;;23.33;13.85;;;2.30;68.40;;;;;;5083348;28;20079;-74
2022/03/01 06:45:54;;;;;;;23.73;14.13;;;2.30;68.50;;;;;;5077352;28;20568;-74
2022/03/01 06:48:20;;;;;;;24.83;14.93;;;2.30;68.30;;;;;;5053237;28;20312;-74
2022/03/01 06:50:46;;;;;;;23.20;14.10;;;2.30;68.30;;;;;;5100343;28;20492;-74
2022/03/01 06:53:13;;;;;;;21.70;13.40;;;2.40;68.40;;;;;;5059318;28;20119;-74
2022/03/01 06:55:40;;;;;;;22.20;13.05;;;2.40;68.00;;;;;;5052920;28;20407;-74
2022/03/01 06:58:06;;;;;;;22.92;13.70;;;2.40;68.30;;;;;;5061940;28;20067;-74
2022/03/01 07:00:32;;;;;;;21.60;13.47;;;2.40;68.20;;;;;;5079895;28;20068;-73
2022/03/01 07:02:58;;;;;;;20.20;13.50;;;2.50;68.20;;;;;;5085615;28;20032;-74
2022/03/01 07:05:23;;;;;;;23.33;14.07;;;2.50;68.30;;;;;;5058633;28;20290;-74
2022/03/01 07:07:49;;;;;;;23.70;13.03;;;2.50;68.20;;;;;;5046157;28;20109;-74
2022/03/01 07:10:15;;;;;;;23.10;13.43;;;2.60;68.20;;;;;;5053425;28;20051;-73
2022/03/01 07:12:43;;;;;;;26.50;14.37;;;2.60;68.10;;;;;;5061885;28;20040;-74
2022/03/01 07:15:10;;;;;;;21.85;13.43;;;2.60;68.20;;;;;;5083782;28;20112;-74
2022/03/01 07:17:35;;;;;;;19.13;13.40;;;2.60;67.90;;;;;;5066641;28;20548;-74
2022/03/01 07:20:02;;;;;;;20.43;14.10;;;2.70;67.60;;;;;;5081850;28;20170;-74
2022/03/01 07:22:27;;;;;;;22.55;14.32;;;2.70;67.60;;;;;;5034229;28;20040;-74
2022/03/01 07:24:53;;;;;;;19.57;13.53;;;2.70;67.70;;;;;;5068080;28;20059;-74
2022/03/01 07:27:19;;;;;;;20.93;13.97;;;2.80;67.50;;;;;;5049081;28;20456;-74
2022/03/01 07:29:44;;;;;;;22.43;14.00;;;2.80;67.40;;;;;;5092363;28;20045;-74
2022/03/01 07:32:10;;;;;;;22.90;13.10;;;2.80;67.20;;;;;;5047090;28;20048;-74
2022/03/01 07:34:36;;;;;;;21.63;13.20;;;2.80;67.30;;;;;;5083794;28;20062;-74
2022/03/01 07:37:04;;;;;;;20.58;13.48;;;2.90;67.40;;;;;;5083115;28;20541;-74
2022/03/01 07:39:29;;;;;;;20.90;12.80;;;2.90;67.60;;;;;;5076228;28;20443;-74
2022/03/01 07:41:55;;;;;;;21.53;13.97;;;3.00;67.10;;;;;;5087093;28;20043;-74
2022/03/01 07:44:21;;;;;;;20.07;13.33;;;3.00;67.20;;;;;;5086409;28;20040;-74
2022/03/01 07:46:47;;;;;;;21.00;13.97;;;3.10;67.50;;;;;;5070631;28;20040;-74
2022/03/01 07:49:13;;;;;;;24.83;14.50;;;3.10;66.60;;;;;;5067191;28;20040;-74
2022/03/01 07:51:38;;;;;;;24.37;13.53;;;3.10;67.00;;;;;;5065515;28;20049;-74
2022/03/01 07:54:04;;;;;;;22.37;14.50;;;3.20;67.20;;;;;;5052863;28;20036;-74
2022/03/01 07:56:30;;;;;;;21.27;12.80;;;3.20;66.60;;;;;;5049614;28;20408;-74
2022/03/01 07:58:57;;;;;;;20.23;13.43;;;3.30;66.40;;;;;;5060025;28;20070;-74
2022/03/01 08:01:22;;;;;;;21.52;12.98;;;3.40;66.50;;;;;;5070057;28;20040;-74
2022/03/01 08:03:49;;;;;;;21.50;14.10;;;3.40;66.00;;;;;;5071131;28;20522;-74
2022/03/01 08:06:16;;;;;;;22.67;14.40;;;3.50;65.80;;;;;;5067024;28;20040;-74
2022/03/01 08:08:41;;;;;;;25.20;14.23;;;3.50;66.30;;;;;;5054730;28;20539;-74
2022/03/01 08:11:07;;;;;;;20.50;14.27;;;3.60;66.00;;;;;;5085757;28;20123;-74
2022/03/01 08:13:34;;;;;;;19.97;13.93;;;3.70;65.90;;;;;;5086731;28;20130;-74
2022/03/01 08:16:02;;;;;;;20.38;13.77;;;3.70;65.90;;;;;;5086077;28;20281;-74
2022/03/01 08:18:27;;;;;;;21.35;13.63;;;3.80;65.50;;;;;;5085145;28;20070;-74
2022/03/01 08:20:53;;;;;;;20.67;13.80;;;3.80;65.60;;;;;;5083588;28;20068;-74
2022/03/01 08:23:19;;;;;;;22.17;13.90;;;3.90;65.70;;;;;;5066285;28;20044;-74
2022/03/01 08:25:44;;;;;;;21.13;13.83;;;4.00;65.70;;;;;;5053713;28;20052;-74
2022/03/01 08:28:12;;;;;;;21.57;13.70;;;4.00;65.90;;;;;;5081422;28;20043;-74
2022/03/01 08:30:38;;;;;;;20.10;13.80;;;4.10;65.50;;;;;;5065710;28;20047;-74
2022/03/01 08:33:05;;;;;;;23.73;13.90;;;4.20;64.80;;;;;;5065028;28;20040;-74
2022/03/01 08:35:34;;;;;;;22.38;14.48;;;4.20;64.70;;;;;;5058366;28;20035;-74
2022/03/01 08:38:05;;;;;;;21.52;14.57;;;4.30;64.70;;;;;;5083412;28;20252;-74
2022/03/01 08:40:37;;;;;;;21.60;14.65;;;4.30;64.70;;;;;;5066583;28;20048;-75
2022/03/01 08:43:06;;;;;;;24.90;15.00;;;4.40;65.20;;;;;;5086600;28;20396;-74
2022/03/01 08:45:32;;;;;;;21.88;14.27;;;4.40;64.30;;;;;;5057730;28;20044;-74
2022/03/01 08:47:58;;;;;;;20.92;14.13;;;4.40;63.80;;;;;;5074089;28;20040;-74
2022/03/01 08:50:24;;;;;;;24.17;14.98;;;4.40;64.00;;;;;;5050891;28;20460;-74
2022/03/01 08:52:50;;;;;;;20.87;14.43;;;4.40;64.10;;;;;;5080411;28;20047;-75
2022/03/01 08:55:17;;;;;;;25.85;16.02;;;4.40;64.70;;;;;;5063294;28;20047;-75
2022/03/01 08:57:43;;;;;;;24.33;15.80;;;4.40;64.80;;;;;;5064412;28;20130;-74
2022/03/01 09:00:11;;;;;;;26.73;15.88;;;4.40;65.00;;;;;;5066208;28;20047;-74
2022/03/01 09:02:37;;;;;;;25.52;16.67;;;4.40;65.30;;;;;;5098225;27;20044;-74
2022/03/01 09:05:05;;;;;;;22.77;15.53;;;4.40;64.90;;;;;;5067258;28;20043;-74
2022/03/01 09:07:32;;;;;;;25.08;15.90;;;4.50;65.00;;;;;;5062578;28;20123;-74
2022/03/01 09:09:57;;;;;;;24.38;15.15;;;4.60;64.80;;;;;;5083178;28;20044;-74
2022/03/01 09:12:23;;;;;;;24.37;16.07;;;4.70;64.70;;;;;;5051988;28;20097;-74
2022/03/01 09:14:49;;;;;;;24.20;14.83;;;4.80;64.20;;;;;;5087283;28;20085;-74
2022/03/01 09:17:15;;;;;;;23.30;14.60;;;4.80;64.20;;;;;;5064226;28;20044;-74
2022/03/01 09:19:40;;;;;;;22.23;14.80;;;4.90;64.00;;;;;;5053050;28;20189;-74
2022/03/01 09:22:06;;;;;;;22.80;15.03;;;5.00;64.60;;;;;;5086241;28;20055;-74
2022/03/01 09:24:32;;;;;;;22.83;15.37;;;5.10;63.80;;;;;;5038860;28;20082;-74
2022/03/01 09:27:01;;;;;;;22.50;15.10;;;5.10;63.20;;;;;;5084528;28;20067;-74
2022/03/01 09:29:30;;;;;;;21.98;14.65;;;5.20;63.10;;;;;;5066083;28;20404;-74
2022/03/01 09:31:57;;;;;;;21.77;14.63;;;5.30;64.20;;;;;;5079012;28;20032;-74
2022/03/01 09:34:23;;;;;;;21.88;14.85;;;5.50;63.00;;;;;;5058398;28;20043;-74
2022/03/01 09:36:50;;;;;;;24.38;15.43;;;5.60;62.20;;;;;;5065719;28;20178;-74
2022/03/01 09:39:15;;;;;;;22.50;14.32;;;5.70;61.70;;;;;;5103657;27;20075;-74
2022/03/01 09:41:41;;;;;;;23.17;14.77;;;5.90;61.50;;;;;;5054375;28;20036;-74
2022/03/01 09:44:08;;;;;;;19.67;14.37;;;6.00;61.50;;;;;;5054947;28;20101;-74
2022/03/01 09:46:34;;;;;;;25.98;15.63;;;6.20;61.10;;;;;;5062176;28;20491;-74
2022/03/01 09:49:01;;;;;;;24.23;15.13;;;6.20;60.50;;;;;;5070959;28;20327;-74
2022/03/01 09:51:27;;;;;;;24.50;14.80;;;6.30;60.40;;;;;;5068033;28;20067;-73
2022/03/01 09:53:54;;;;;;;23.13;15.48;;;6.30;59.80;;;;;;5068642;28;20034;-72
2022/03/01 09:56:19;;;;;;;23.80;15.50;;;6.30;60.50;;;;;;5057299;28;20044;-72
2022/03/01 09:58:47;;;;;;;22.03;15.27;;;6.40;59.20;;;;;;5065931;28;20046;-72
2022/03/01 10:01:16;;;;;;;24.73;15.88;;;6.40;59.60;;;;;;5077516;28;20043;-72
2022/03/01 10:03:41;;;;;;;25.77;15.90;;;6.40;59.90;;;;;;5065086;28;20036;-72
2022/03/01 10:06:10;;;;;;;24.60;16.37;;;6.40;60.10;;;;;;5054088;28;20522;-72
2022/03/01 10:08:36;;;;;;;22.95;15.55;;;6.40;60.40;;;;;;5064991;28;20087;-72
2022/03/01 10:11:02;;;;;;;26.08;16.55;;;6.50;60.90;;;;;;5063532;28;20589;-73
2022/03/01 10:13:33;;;;;;;28.75;17.45;;;6.50;61.20;;;;;;5066242;28;20507;-72
2022/03/01 10:16:06;;;;;;;25.25;16.85;;;6.60;60.80;;;;;;5066445;28;20071;-72
2022/03/01 10:18:37;;;;;;;24.70;16.60;;;6.70;61.00;;;;;;5069749;28;20051;-72
2022/03/01 10:21:09;;;;;;;27.20;17.90;;;6.70;60.80;;;;;;5078471;28;20070;-74
2022/03/01 10:23:35;;;;;;;32.03;18.70;;;6.80;61.60;;;;;;5068428;28;20359;-74
2022/03/01 10:26:12;;;;;;;27.20;17.83;;;6.80;61.20;;;;;;5078377;28;20316;-74
2022/03/01 10:28:38;;;;;;;28.50;17.27;;;6.80;61.20;;;;;;5073160;28;20044;-74
2022/03/01 10:31:16;;;;;;;27.45;17.80;;;6.80;61.30;;;;;;5032585;28;20130;-74
2022/03/01 10:34:02;;;;;;;29.58;18.05;;;6.70;62.20;;;;;;5086730;28;20039;-74
2022/03/01 10:36:47;;;;;;;;;;;6.70;63.00;;;;;;5065666;28;20051;-74
2022/03/01 10:39:28;;;;;;;29.77;17.73;;;6.80;62.40;;;;;;5066083;28;19927;-74
2022/03/01 10:41:54;;;;;;;26.65;17.73;;;6.70;62.60;;;;;;5065076;28;20566;-74
2022/03/01 10:44:30;;;;;;;30.98;18.25;;;6.70;62.90;;;;;;5050747;28;20048;-74
2022/03/01 10:46:58;;;;;;;31.38;19.45;;;6.70;63.40;;;;;;5078997;28;20684;-75
2022/03/01 10:49:26;;;;;;;31.25;19.67;;;6.70;62.60;;;;;;5066255;28;20214;-75
2022/03/01 10:51:54;;;;;;;30.77;19.52;;;6.60;62.80;;;;;;5065083;28;20578;-75
2022/03/01 10:54:27;;;;;;;31.25;19.08;;;6.50;62.50;;;;;;5056679;28;20052;-74
2022/03/01 10:56:56;;;;;;;27.27;18.27;;;6.50;63.20;;;;;;5058244;28;20046;-74
2022/03/01 10:59:32;;;;;;;29.60;18.98;;;6.40;63.30;;;;;;5067739;28;20400;-74
2022/03/01 11:01:59;;;;;;;27.55;18.25;;;6.40;64.20;;;;;;5064238;28;20397;-75
2022/03/01 11:04:26;;;;;;;26.23;17.80;;;6.40;64.70;;;;;;5084924;28;20044;-75
2022/03/01 11:06:53;;;;;;;29.40;18.95;;;6.30;64.20;;;;;;5080655;28;20054;-74
2022/03/01 11:09:23;;;;;;;25.67;17.85;;;6.30;64.10;;;;;;5066748;28;20043;-74
2022/03/01 11:11:51;;;;;;;26.95;17.80;;;6.30;64.70;;;;;;5081909;28;20118;-74
2022/03/01 11:14:28;;;;;;;27.15;17.67;;;6.20;64.00;;;;;;5051542;28;20032;-74
2022/03/01 11:17:22;;;;;;;24.38;18.25;;;6.20;64.50;;;;;;5084300;28;20043;-74
2022/03/01 11:20:00;;;;;;;28.80;18.45;;;6.30;65.60;;;;;;5062426;28;20051;-74
2022/03/01 11:22:32;;;;;;;24.25;16.85;;;6.30;65.70;;;;;;5084364;28;20048;-74
2022/03/01 11:24:58;;;;;;;23.85;16.42;;;6.20;66.20;;;;;;5067473;28;20048;-75
2022/03/01 11:27:25;;;;;;;28.80;18.70;;;6.20;66.90;;;;;;5083010;28;20459;-75
2022/03/01 11:29:52;;;;;;;28.48;18.60;;;6.30;67.30;;;;;;5056802;28;20052;-75
2022/03/01 11:32:21;;;;;;;26.27;17.02;;;6.30;66.80;;;;;;5061086;28;20123;-75
2022/03/01 11:34:47;;;;;;;26.02;17.20;;;6.30;67.40;;;;;;5100269;28;20110;-75
2022/03/01 11:37:19;;;;;;;23.77;16.40;;;6.40;67.60;;;;;;5036446;28;20119;-75
2022/03/01 11:39:55;;;;;;;27.90;16.77;;;6.40;67.30;;;;;;5066267;28;20071;-75
2022/03/01 11:42:21;;;;;;;33.22;17.20;;;6.50;67.00;;;;;;5067281;28;20040;-75
2022/03/01 11:44:52;;;;;;;24.77;16.83;;;6.50;67.20;;;;;;5058475;28;20120;-74
2022/03/01 11:47:28;;;;;;;23.15;16.83;;;6.60;68.10;;;;;;5075603;28;20496;-73
2022/03/01 11:49:55;;;;;;;24.00;17.08;;;6.70;68.50;;;;;;5082540;28;20051;-73
2022/03/01 11:52:23;;;;;;;26.98;18.33;;;6.80;68.60;;;;;;5062997;28;20190;-73
2022/03/01 11:54:50;;;;;;;23.33;16.77;;;6.80;67.90;;;;;;5081457;28;20133;-73
2022/03/01 11:57:23;;;;;;;25.48;17.00;;;7.00;68.20;;;;;;5071356;28;20123;-73
2022/03/01 11:59:50;;;;;;;25.23;17.40;;;7.10;68.30;;;;;;5084186;28;20637;-73
2022/03/01 12:02:18;;;;;;;26.08;17.52;;;7.20;67.80;;;;;;5066900;28;20036;-73
2022/03/01 12:04:51;;;;;;;24.65;17.08;;;7.30;68.20;;;;;;5063525;28;20556;-73
2022/03/01 12:07:22;;;;;;;22.27;16.48;;;7.50;68.30;;;;;;5081331;28;20124;-73
2022/03/01 12:10:00;;;;;;;23.83;16.58;;;7.50;66.80;;;;;;5073312;28;20090;-73
2022/03/01 12:12:43;;;;;;;23.58;16.15;;;7.50;66.90;;;;;;5058488;28;20036;-73
2022/03/01 12:15:10;;;;;;;24.42;17.60;;;7.60;66.70;;;;;;5056673;28;20032;-73
2022/03/01 12:17:40;;;;;;;23.00;16.02;;;7.60;66.90;;;;;;5069699;28;20496;-75
2022/03/01 12:20:09;;;;;;;24.00;17.25;;;7.60;66.70;;;;;;5077849;28;20470;-75
2022/03/01 12:22:35;;;;;;;25.42;16.75;;;7.60;66.90;;;;;;5064581;28;20047;-75
2022/03/01 12:25:00;;;;;;;24.83;17.70;;;7.60;66.60;;;;;;5053625;28;20074;-75
2022/03/01 12:27:30;;;;;;;25.17;18.03;;;7.60;66.50;;;;;;5088383;28;20044;-75
2022/03/01 12:30:01;;;;;;;25.60;16.85;;;7.70;67.40;;;;;;5071774;28;20047;-75
2022/03/01 12:32:27;;;;;;;25.45;17.08;;;7.70;65.70;;;;;;5083266;28;20043;-75
2022/03/01 12:34:58;;;;;;;24.43;17.60;;;7.70;66.50;;;;;;5094951;28;20076;-73
2022/03/01 12:37:27;;;;;;;21.92;16.77;;;7.70;66.30;;;;;;5058577;28;20032;-73
2022/03/01 12:39:54;;;;;;;24.63;17.40;;;7.70;66.40;;;;;;5088412;28;20520;-74